sensor_id;sensor_type;location;lat;lon;timestamp;pressure;altitude;pressure_sealevel;temperature;humidity
12793;BME280;6460;42.684;23.260;2023-04-22T03:53:36;94301.34;;;8.88;97.48
12793;BME280;6460;42.684;23.260;2023-04-22T03:56:03;94315.41;;;9.00;96.36
12793;BME280;6460;42.684;23.260;2023-04-22T05:02:03;94361.22;;;10.52;87.72
12793;BME280;6460;42.684;23.260;2023-04-22T05:22:46;94369.41;;;11.12;85.90
12793;BME280;6460;42.684;23.260;2023-04-22T07:10:04;94377.06;;;15.34;68.27
12793;BME280;6460;42.684;23.260;2023-04-22T07:15:07;94380.53;;;15.59;68.03
12793;BME280;6460;42.684;23.260;2023-04-22T07:27:57;94377.59;;;16.12;67.11
12793;BME280;6460;42.684;23.260;2023-04-22T07:30:24;94385.66;;;16.30;62.95
12793;BME280;6460;42.684;23.260;2023-04-22T07:32:51;94386.44;;;16.30;62.18
12793;BME280;6460;42.684;23.260;2023-04-22T07:35:19;94380.66;;;16.18;63.06
12793;BME280;6460;42.684;23.260;2023-04-22T07:37:46;94380.59;;;16.32;62.09
12793;BME280;6460;42.684;23.260;2023-04-22T07:45:28;94379.84;;;16.93;59.29
12793;BME280;6460;42.684;23.260;2023-04-22T07:47:58;94385.63;;;16.96;57.03
12793;BME280;6460;42.684;23.260;2023-04-22T07:50:31;94377.53;;;17.33;56.58
12793;BME280;6460;42.684;23.260;2023-04-22T07:53:02;94374.22;;;17.52;59.75
12793;BME280;6460;42.684;23.260;2023-04-22T07:55:29;94385.63;;;17.40;56.76
12793;BME280;6460;42.684;23.260;2023-04-22T07:57:57;94383.28;;;16.98;56.89
12793;BME280;6460;42.684;23.260;2023-04-22T08:00:25;94374.47;;;17.31;56.11
12793;BME280;6460;42.684;23.260;2023-04-22T08:02:54;94375.00;;;17.53;61.39
12793;BME280;6460;42.684;23.260;2023-04-22T08:05:21;94367.44;;;17.74;59.75
12793;BME280;6460;42.684;23.260;2023-04-22T08:07:48;94367.22;;;17.92;53.94
12793;BME280;6460;42.684;23.260;2023-04-22T08:10:51;94363.56;;;18.06;54.85
12793;BME280;6460;42.684;23.260;2023-04-22T08:13:18;94367.94;;;17.62;53.95
12793;BME280;6460;42.684;23.260;2023-04-22T08:15:45;94368.75;;;17.59;52.80
12793;BME280;6460;42.684;23.260;2023-04-22T08:18:14;94356.84;;;18.14;61.08
12793;BME280;6460;42.684;23.260;2023-04-22T08:20:41;94361.19;;;17.77;50.57
12793;BME280;6460;42.684;23.260;2023-04-22T08:23:08;94356.47;;;18.15;50.24
12793;BME280;6460;42.684;23.260;2023-04-22T08:25:35;94353.31;;;18.17;52.24
12793;BME280;6460;42.684;23.260;2023-04-22T08:28:02;94354.06;;;17.87;51.31
12793;BME280;6460;42.684;23.260;2023-04-22T08:33:52;94355.94;;;16.74;61.65
12793;BME280;6460;42.684;23.260;2023-04-22T08:36:20;94341.50;;;17.66;57.33
12793;BME280;6460;42.684;23.260;2023-04-22T08:38:59;94331.88;;;18.53;66.28
12793;BME280;6460;42.684;23.260;2023-04-22T08:41:38;94341.78;;;19.13;52.71
12793;BME280;6460;42.684;23.260;2023-04-22T08:47:26;94335.38;;;18.76;47.08
12793;BME280;6460;42.684;23.260;2023-04-22T08:53:51;94331.16;;;18.45;47.57
12793;BME280;6460;42.684;23.260;2023-04-22T09:00:27;94324.88;;;18.52;46.60
12793;BME280;6460;42.684;23.260;2023-04-22T09:02:55;94323.38;;;18.47;47.29
12793;BME280;6460;42.684;23.260;2023-04-22T09:05:24;94319.75;;;19.27;46.05
12793;BME280;6460;42.684;23.260;2023-04-22T09:18:47;94307.78;;;18.51;43.85
12793;BME280;6460;42.684;23.260;2023-04-22T09:21:14;94307.34;;;20.04;41.31
12793;BME280;6460;42.684;23.260;2023-04-22T09:23:45;94307.31;;;19.69;40.64
12793;BME280;6460;42.684;23.260;2023-04-22T09:26:12;94318.03;;;19.36;40.92
12793;BME280;6460;42.684;23.260;2023-04-22T09:28:48;94302.63;;;19.69;39.76
12793;BME280;6460;42.684;23.260;2023-04-22T09:31:15;94302.00;;;19.62;41.77
12793;BME280;6460;42.684;23.260;2023-04-22T09:33:48;94291.88;;;19.62;42.95
12793;BME280;6460;42.684;23.260;2023-04-22T09:36:15;94295.78;;;19.61;42.82
12793;BME280;6460;42.684;23.260;2023-04-22T09:38:52;94293.66;;;19.88;41.93
12793;BME280;6460;42.684;23.260;2023-04-22T09:41:26;94287.47;;;20.04;41.47
12793;BME280;6460;42.684;23.260;2023-04-22T09:43:54;94284.69;;;20.07;42.54
12793;BME280;6460;42.684;23.260;2023-04-22T09:46:23;94285.00;;;19.54;39.27
12793;BME280;6460;42.684;23.260;2023-04-22T09:48:53;94290.00;;;19.95;38.56
12793;BME280;6460;42.684;23.260;2023-04-22T09:51:21;94277.34;;;19.85;38.02
12793;BME280;6460;42.684;23.260;2023-04-22T09:53:58;94286.25;;;20.25;37.47
12793;BME280;6460;42.684;23.260;2023-04-22T09:56:42;94273.16;;;20.36;36.70
12793;BME280;6460;42.684;23.260;2023-04-22T09:59:10;94275.72;;;20.43;35.16
12793;BME280;6460;42.684;23.260;2023-04-22T10:01:37;94283.44;;;20.48;35.82
12793;BME280;6460;42.684;23.260;2023-04-22T10:04:07;94272.31;;;20.55;38.08
12793;BME280;6460;42.684;23.260;2023-04-22T10:06:35;94273.69;;;20.63;40.89
12793;BME280;6460;42.684;23.260;2023-04-22T10:09:03;94263.94;;;19.94;41.89
12793;BME280;6460;42.684;23.260;2023-04-22T10:11:31;94265.75;;;20.00;41.66
12793;BME280;6460;42.684;23.260;2023-04-22T10:14:03;94264.63;;;20.34;41.82
12793;BME280;6460;42.684;23.260;2023-04-22T10:16:31;94259.63;;;20.13;40.15
12793;BME280;6460;42.684;23.260;2023-04-22T10:19:03;94266.75;;;20.26;40.72
12793;BME280;6460;42.684;23.260;2023-04-22T10:21:33;94261.16;;;20.14;38.77
12793;BME280;6460;42.684;23.260;2023-04-22T10:24:02;94260.25;;;19.84;37.58
12793;BME280;6460;42.684;23.260;2023-04-22T10:26:40;94255.03;;;20.10;36.52
12793;BME280;6460;42.684;23.260;2023-04-22T10:29:08;94252.31;;;20.10;35.89
12793;BME280;6460;42.684;23.260;2023-04-22T10:31:41;94248.84;;;19.89;36.95
12793;BME280;6460;42.684;23.260;2023-04-22T10:34:10;94242.81;;;20.14;36.48
12793;BME280;6460;42.684;23.260;2023-04-22T10:36:58;94253.19;;;20.23;35.98
12793;BME280;6460;42.684;23.260;2023-04-22T10:39:26;94254.03;;;20.20;35.84
12793;BME280;6460;42.684;23.260;2023-04-22T10:42:04;94251.16;;;20.43;35.15
12793;BME280;6460;42.684;23.260;2023-04-22T10:44:48;94246.38;;;20.79;33.99
12793;BME280;6460;42.684;23.260;2023-04-22T10:47:26;94246.00;;;20.93;33.51
12793;BME280;6460;42.684;23.260;2023-04-22T10:50:16;94246.88;;;20.90;34.34
12793;BME280;6460;42.684;23.260;2023-04-22T10:52:50;94242.28;;;20.87;34.46
12793;BME280;6460;42.684;23.260;2023-04-22T10:55:18;94238.03;;;20.70;34.81
12793;BME280;6460;42.684;23.260;2023-04-22T11:01:13;94235.69;;;21.17;34.34
12793;BME280;6460;42.684;23.260;2023-04-22T11:03:41;94228.81;;;21.25;34.63
12793;BME280;6460;42.684;23.260;2023-04-22T11:06:22;94235.59;;;21.04;33.83
12793;BME280;6460;42.684;23.260;2023-04-22T11:09:09;94245.00;;;20.71;33.94
12793;BME280;6460;42.684;23.260;2023-04-22T11:11:37;94239.75;;;20.32;35.70
12793;BME280;6460;42.684;23.260;2023-04-22T11:14:04;94249.38;;;20.17;34.92
12793;BME280;6460;42.684;23.260;2023-04-22T11:16:32;94242.72;;;20.37;35.02
12793;BME280;6460;42.684;23.260;2023-04-22T11:19:20;94245.13;;;20.68;34.39
12793;BME280;6460;42.684;23.260;2023-04-22T11:21:47;94238.88;;;20.67;34.26
12793;BME280;6460;42.684;23.260;2023-04-22T11:24:18;94250.75;;;20.61;35.42
12793;BME280;6460;42.684;23.260;2023-04-22T11:26:45;94250.63;;;20.96;34.61
12793;BME280;6460;42.684;23.260;2023-04-22T11:29:12;94254.69;;;21.37;33.42
12793;BME280;6460;42.684;23.260;2023-04-22T11:31:45;94254.13;;;21.42;33.41
12793;BME280;6460;42.684;23.260;2023-04-22T11:36:57;94274.59;;;21.37;35.89
12793;BME280;6460;42.684;23.260;2023-04-22T11:39:35;94268.16;;;20.83;37.44
12793;BME280;6460;42.684;23.260;2023-04-22T11:42:04;94276.75;;;20.49;37.97
12793;BME280;6460;42.684;23.260;2023-04-22T11:44:31;94278.06;;;20.61;39.51
12793;BME280;6460;42.684;23.260;2023-04-22T11:47:00;94282.88;;;20.37;39.19
12793;BME280;6460;42.684;23.260;2023-04-22T11:49:27;94289.56;;;20.52;38.67
12793;BME280;6460;42.684;23.260;2023-04-22T11:51:57;94285.19;;;20.02;40.33
12793;BME280;6460;42.684;23.260;2023-04-22T11:54:32;94291.13;;;19.97;40.10
12793;BME280;6460;42.684;23.260;2023-04-22T11:57:02;94292.56;;;20.22;39.54
12793;BME280;6460;42.684;23.260;2023-04-22T11:59:29;94298.56;;;20.33;39.27
12793;BME280;6460;42.684;23.260;2023-04-22T12:01:59;94293.66;;;20.60;40.31
12793;BME280;6460;42.684;23.260;2023-04-22T12:04:26;94292.28;;;20.84;39.10
12793;BME280;6460;42.684;23.260;2023-04-22T12:06:53;94293.84;;;21.18;39.51
12793;BME280;6460;42.684;23.260;2023-04-22T12:09:23;94313.03;;;20.82;39.37
12793;BME280;6460;42.684;23.260;2023-04-22T12:11:50;94295.13;;;19.73;42.25
12793;BME280;6460;42.684;23.260;2023-04-22T12:14:19;94304.72;;;18.95;45.06
12793;BME280;6460;42.684;23.260;2023-04-22T12:16:49;94316.31;;;18.23;47.88
12793;BME280;6460;42.684;23.260;2023-04-22T12:19:36;94324.28;;;18.37;48.43
12793;BME280;6460;42.684;23.260;2023-04-22T12:29:24;94312.75;;;19.49;45.35
12793;BME280;6460;42.684;23.260;2023-04-22T12:31:52;94312.56;;;19.40;44.02
12793;BME280;6460;42.684;23.260;2023-04-22T12:34:47;94311.81;;;19.36;44.66
12793;BME280;6460;42.684;23.260;2023-04-22T12:37:17;94309.66;;;19.47;44.99
12793;BME280;6460;42.684;23.260;2023-04-22T12:39:45;94312.00;;;19.68;42.73
12793;BME280;6460;42.684;23.260;2023-04-22T12:42:12;94301.38;;;19.74;42.06
12793;BME280;6460;42.684;23.260;2023-04-22T12:44:52;94300.53;;;19.57;44.52
12793;BME280;6460;42.684;23.260;2023-04-22T12:47:19;94308.00;;;19.53;45.36
12793;BME280;6460;42.684;23.260;2023-04-22T12:49:46;94302.75;;;20.01;44.15
12793;BME280;6460;42.684;23.260;2023-04-22T13:09:35;94294.84;;;20.43;40.23
12793;BME280;6460;42.684;23.260;2023-04-22T13:12:02;94301.84;;;20.44;39.75
12793;BME280;6460;42.684;23.260;2023-04-22T13:14:29;94298.19;;;19.95;39.56
12793;BME280;6460;42.684;23.260;2023-04-22T13:17:10;94296.09;;;20.02;39.97
12793;BME280;6460;42.684;23.260;2023-04-22T13:22:46;94285.31;;;20.15;37.01
12793;BME280;6460;42.684;23.260;2023-04-22T13:25:19;94293.53;;;19.56;37.43
12793;BME280;6460;42.684;23.260;2023-04-22T13:27:52;94295.84;;;19.97;37.16
12793;BME280;6460;42.684;23.260;2023-04-22T13:30:19;94294.34;;;19.92;38.08
12793;BME280;6460;42.684;23.260;2023-04-22T13:32:46;94295.06;;;19.96;36.01
12793;BME280;6460;42.684;23.260;2023-04-22T13:35:13;94293.03;;;20.36;37.07
12793;BME280;6460;42.684;23.260;2023-04-22T13:37:42;94299.13;;;20.60;36.00
12793;BME280;6460;42.684;23.260;2023-04-22T13:40:11;94290.66;;;20.87;34.67
12793;BME280;6460;42.684;23.260;2023-04-22T13:42:41;94294.03;;;21.10;34.44
12793;BME280;6460;42.684;23.260;2023-04-22T13:45:10;94291.09;;;21.18;34.29
12793;BME280;6460;42.684;23.260;2023-04-22T13:47:38;94298.75;;;21.39;33.51
12793;BME280;6460;42.684;23.260;2023-04-22T13:50:07;94296.88;;;21.64;34.28
12793;BME280;6460;42.684;23.260;2023-04-22T13:52:34;94298.03;;;21.51;33.42
12793;BME280;6460;42.684;23.260;2023-04-22T13:55:02;94296.88;;;21.36;34.27
12793;BME280;6460;42.684;23.260;2023-04-22T13:57:29;94287.34;;;21.28;33.47
12793;BME280;6460;42.684;23.260;2023-04-22T14:03:16;94293.66;;;20.92;33.37
12793;BME280;6460;42.684;23.260;2023-04-22T14:05:43;94294.47;;;21.09;32.74
12793;BME280;6460;42.684;23.260;2023-04-22T14:08:10;94292.41;;;21.42;32.04
12793;BME280;6460;42.684;23.260;2023-04-22T14:10:37;94281.69;;;21.76;31.32
12793;BME280;6460;42.684;23.260;2023-04-22T14:13:05;94290.78;;;20.99;32.57
12793;BME280;6460;42.684;23.260;2023-04-22T14:15:32;94288.16;;;20.28;34.42
12793;BME280;6460;42.684;23.260;2023-04-22T14:17:59;94283.16;;;21.07;32.24
12793;BME280;6460;42.684;23.260;2023-04-22T14:20:27;94270.44;;;21.74;31.85
12793;BME280;6460;42.684;23.260;2023-04-22T14:22:54;94271.78;;;21.82;31.31
12793;BME280;6460;42.684;23.260;2023-04-22T14:25:22;94278.41;;;21.97;31.03
12793;BME280;6460;42.684;23.260;2023-04-22T14:27:49;94266.88;;;21.90;30.62
12793;BME280;6460;42.684;23.260;2023-04-22T14:30:16;94274.47;;;21.98;31.53
12793;BME280;6460;42.684;23.260;2023-04-22T14:32:44;94266.16;;;22.14;31.79
12793;BME280;6460;42.684;23.260;2023-04-22T14:35:12;94273.25;;;21.99;32.54
12793;BME280;6460;42.684;23.260;2023-04-22T14:37:40;94271.00;;;21.82;32.76
12793;BME280;6460;42.684;23.260;2023-04-22T14:40:10;94266.97;;;21.57;31.75
12793;BME280;6460;42.684;23.260;2023-04-22T14:42:37;94266.16;;;21.73;31.28
12793;BME280;6460;42.684;23.260;2023-04-22T14:45:05;94261.22;;;22.22;30.31
12793;BME280;6460;42.684;23.260;2023-04-22T14:47:33;94261.25;;;22.73;29.34
12793;BME280;6460;42.684;23.260;2023-04-22T14:50:00;94265.19;;;22.84;30.06
12793;BME280;6460;42.684;23.260;2023-04-22T14:52:27;94260.59;;;22.69;30.76
12793;BME280;6460;42.684;23.260;2023-04-22T14:54:56;94272.09;;;22.51;31.44
12793;BME280;6460;42.684;23.260;2023-04-22T14:57:23;94275.03;;;22.56;31.05
12793;BME280;6460;42.684;23.260;2023-04-22T14:59:50;94272.00;;;22.67;32.06
12793;BME280;6460;42.684;23.260;2023-04-22T15:02:17;94270.22;;;22.60;30.56
12793;BME280;6460;42.684;23.260;2023-04-22T15:04:45;94276.69;;;22.54;32.15
12793;BME280;6460;42.684;23.260;2023-04-22T15:07:12;94277.34;;;22.33;33.20
12793;BME280;6460;42.684;23.260;2023-04-22T15:09:39;94272.19;;;22.47;32.62
12793;BME280;6460;42.684;23.260;2023-04-22T15:12:07;94276.91;;;22.47;32.89
12793;BME280;6460;42.684;23.260;2023-04-22T15:14:35;94283.22;;;22.06;33.75
12793;BME280;6460;42.684;23.260;2023-04-22T15:17:02;94282.97;;;21.59;35.51
12793;BME280;6460;42.684;23.260;2023-04-22T15:19:30;94287.44;;;21.24;37.20
12793;BME280;6460;42.684;23.260;2023-04-22T15:21:57;94285.56;;;20.56;36.15
12793;BME280;6460;42.684;23.260;2023-04-22T15:24:24;94285.63;;;20.37;35.59
12793;BME280;6460;42.684;23.260;2023-04-22T15:26:52;94284.00;;;20.39;35.16
12793;BME280;6460;42.684;23.260;2023-04-22T15:29:21;94291.09;;;20.69;36.68
12793;BME280;6460;42.684;23.260;2023-04-22T15:31:48;94287.41;;;20.43;38.31
12793;BME280;6460;42.684;23.260;2023-04-22T15:34:16;94290.53;;;20.26;38.90
12793;BME280;6460;42.684;23.260;2023-04-22T15:36:43;94297.22;;;20.41;37.90
12793;BME280;6460;42.684;23.260;2023-04-22T15:39:10;94295.72;;;20.72;37.56
12793;BME280;6460;42.684;23.260;2023-04-22T15:41:37;94305.09;;;20.71;37.06
12793;BME280;6460;42.684;23.260;2023-04-22T15:44:06;94299.63;;;20.71;36.96
12793;BME280;6460;42.684;23.260;2023-04-22T15:46:36;94298.09;;;20.54;36.59
12793;BME280;6460;42.684;23.260;2023-04-22T15:49:03;94300.41;;;20.20;36.77
12793;BME280;6460;42.684;23.260;2023-04-22T15:51:30;94295.63;;;20.24;37.04
12793;BME280;6460;42.684;23.260;2023-04-22T15:53:57;94297.47;;;20.11;37.02
12793;BME280;6460;42.684;23.260;2023-04-22T15:56:24;94296.03;;;19.86;37.21
12793;BME280;6460;42.684;23.260;2023-04-22T15:58:51;94296.41;;;19.69;37.89
12793;BME280;6460;42.684;23.260;2023-04-22T16:01:20;94296.03;;;19.47;40.72
12793;BME280;6460;42.684;23.260;2023-04-22T16:03:49;94295.25;;;19.03;43.10
12793;BME280;6460;42.684;23.260;2023-04-22T16:08:52;94309.94;;;18.86;40.14
12793;BME280;6460;42.684;23.260;2023-04-22T16:11:20;94309.09;;;19.13;40.67
12793;BME280;6460;42.684;23.260;2023-04-22T16:14:04;94306.50;;;19.06;40.77
12793;BME280;6460;42.684;23.260;2023-04-22T16:16:39;94304.53;;;18.60;39.58
12793;BME280;6460;42.684;23.260;2023-04-22T16:22:21;94313.22;;;18.51;40.57
12793;BME280;6460;42.684;23.260;2023-04-22T16:28:29;94323.81;;;18.42;40.65
12793;BME280;6460;42.684;23.260;2023-04-22T16:31:28;94321.81;;;18.46;40.85
12793;BME280;6460;42.684;23.260;2023-04-22T16:33:55;94326.28;;;18.63;40.72
12793;BME280;6460;42.684;23.260;2023-04-22T16:36:23;94332.31;;;18.74;39.36
12793;BME280;6460;42.684;23.260;2023-04-22T16:38:52;94341.69;;;18.43;40.44
12793;BME280;6460;42.684;23.260;2023-04-22T16:41:19;94333.03;;;18.78;39.67
12793;BME280;6460;42.684;23.260;2023-04-22T16:43:46;94335.94;;;18.91;39.61
12793;BME280;6460;42.684;23.260;2023-04-22T16:46:13;94341.66;;;18.73;40.47
12793;BME280;6460;42.684;23.260;2023-04-22T16:48:40;94338.19;;;18.42;41.06
12793;BME280;6460;42.684;23.260;2023-04-22T16:51:08;94343.53;;;17.92;42.90
12793;BME280;6460;42.684;23.260;2023-04-22T16:53:36;94349.94;;;17.75;43.98
12793;BME280;6460;42.684;23.260;2023-04-22T16:56:06;94353.47;;;17.35;45.36
12793;BME280;6460;42.684;23.260;2023-04-22T16:58:33;94365.88;;;16.91;47.22
12793;BME280;6460;42.684;23.260;2023-04-22T17:01:00;94355.56;;;16.72;49.28
12793;BME280;6460;42.684;23.260;2023-04-22T17:03:28;94373.69;;;16.24;53.74
12793;BME280;6460;42.684;23.260;2023-04-22T17:05:56;94366.16;;;16.49;54.34
12793;BME280;6460;42.684;23.260;2023-04-22T17:08:23;94378.94;;;16.56;55.15
12793;BME280;6460;42.684;23.260;2023-04-22T17:10:52;94369.78;;;16.25;56.31
12793;BME280;6460;42.684;23.260;2023-04-22T17:13:21;94378.19;;;15.65;59.99
12793;BME280;6460;42.684;23.260;2023-04-22T17:15:49;94383.81;;;16.13;59.08
12793;BME280;6460;42.684;23.260;2023-04-22T17:18:22;94387.75;;;15.98;60.75
12793;BME280;6460;42.684;23.260;2023-04-22T17:20:50;94387.72;;;16.05;61.57
12793;BME280;6460;42.684;23.260;2023-04-22T17:23:18;94395.25;;;15.16;65.18
12793;BME280;6460;42.684;23.260;2023-04-22T17:25:45;94403.38;;;15.37;64.50
12793;BME280;6460;42.684;23.260;2023-04-22T17:28:13;94395.25;;;15.41;64.83
12793;BME280;6460;42.684;23.260;2023-04-22T17:30:41;94398.75;;;14.81;66.48
12793;BME280;6460;42.684;23.260;2023-04-22T17:33:08;94398.75;;;14.84;66.02
12793;BME280;6460;42.684;23.260;2023-04-22T17:35:35;94410.38;;;15.03;65.21
12793;BME280;6460;42.684;23.260;2023-04-22T17:38:03;94411.50;;;14.63;67.48
12793;BME280;6460;42.684;23.260;2023-04-22T17:40:30;94410.38;;;15.03;65.63
12793;BME280;6460;42.684;23.260;2023-04-22T17:42:57;94405.72;;;14.75;66.84
12793;BME280;6460;42.684;23.260;2023-04-22T17:45:26;94408.03;;;14.98;66.01
12793;BME280;6460;42.684;23.260;2023-04-22T17:47:59;94415.38;;;14.72;67.42
12793;BME280;6460;42.684;23.260;2023-04-22T17:50:27;94415.75;;;14.60;67.50
12793;BME280;6460;42.684;23.260;2023-04-22T17:52:54;94419.59;;;14.56;66.42
12793;BME280;6460;42.684;23.260;2023-04-22T17:55:21;94427.25;;;14.36;67.55
12793;BME280;6460;42.684;23.260;2023-04-22T17:57:49;94435.41;;;14.43;67.13
12793;BME280;6460;42.684;23.260;2023-04-22T18:00:16;94432.63;;;14.22;67.77
12793;BME280;6460;42.684;23.260;2023-04-22T18:02:44;94439.69;;;14.51;66.41
12793;BME280;6460;42.684;23.260;2023-04-22T18:05:12;94443.16;;;14.45;66.53
12793;BME280;6460;42.684;23.260;2023-04-22T18:07:40;94438.78;;;14.15;67.58
12793;BME280;6460;42.684;23.260;2023-04-22T18:10:09;94441.50;;;14.19;68.02
12793;BME280;6460;42.684;23.260;2023-04-22T18:12:37;94451.16;;;14.23;67.27
12793;BME280;6460;42.684;23.260;2023-04-22T18:15:05;94458.22;;;14.42;67.04
12793;BME280;6460;42.684;23.260;2023-04-22T18:17:33;94469.63;;;14.04;67.91
12793;BME280;6460;42.684;23.260;2023-04-22T18:20:00;94467.78;;;14.29;67.59
12793;BME280;6460;42.684;23.260;2023-04-22T18:22:29;94467.50;;;14.48;66.74
12793;BME280;6460;42.684;23.260;2023-04-22T18:24:56;94470.31;;;13.87;69.11
12793;BME280;6460;42.684;23.260;2023-04-22T18:27:24;94478.34;;;13.79;70.02
12793;BME280;6460;42.684;23.260;2023-04-22T18:29:51;94480.25;;;13.68;69.98
12793;BME280;6460;42.684;23.260;2023-04-22T18:32:19;94480.38;;;13.97;69.91
12793;BME280;6460;42.684;23.260;2023-04-22T18:34:47;94473.44;;;13.96;70.13
12793;BME280;6460;42.684;23.260;2023-04-22T18:37:14;94479.53;;;13.82;70.96
12793;BME280;6460;42.684;23.260;2023-04-22T18:39:44;94480.38;;;13.93;70.91
12793;BME280;6460;42.684;23.260;2023-04-22T18:42:11;94492.59;;;13.73;71.63
12793;BME280;6460;42.684;23.260;2023-04-22T18:44:39;94490.25;;;13.64;71.83
12793;BME280;6460;42.684;23.260;2023-04-22T18:47:07;94488.75;;;13.74;71.62
12793;BME280;6460;42.684;23.260;2023-04-22T18:49:34;94485.75;;;13.90;71.84
12793;BME280;6460;42.684;23.260;2023-04-22T18:52:02;94481.03;;;13.76;71.71
12793;BME280;6460;42.684;23.260;2023-04-22T18:54:29;94481.06;;;13.79;71.54
12793;BME280;6460;42.684;23.260;2023-04-22T18:56:58;94491.84;;;13.76;71.75
12793;BME280;6460;42.684;23.260;2023-04-22T18:59:26;94489.47;;;13.67;71.89
12793;BME280;6460;42.684;23.260;2023-04-22T19:01:54;94494.19;;;13.77;71.56
12793;BME280;6460;42.684;23.260;2023-04-22T19:04:21;94494.88;;;13.67;70.65
12793;BME280;6460;42.684;23.260;2023-04-22T19:06:48;94501.13;;;13.82;70.47
12793;BME280;6460;42.684;23.260;2023-04-22T19:09:15;94507.16;;;13.58;70.56
12793;BME280;6460;42.684;23.260;2023-04-22T19:11:44;94505.56;;;13.53;71.05
12793;BME280;6460;42.684;23.260;2023-04-22T19:14:13;94509.03;;;13.06;73.03
12793;BME280;6460;42.684;23.260;2023-04-22T19:16:40;94507.53;;;13.53;72.41
12793;BME280;6460;42.684;23.260;2023-04-22T19:19:07;94513.97;;;13.41;73.15
12793;BME280;6460;42.684;23.260;2023-04-22T19:21:36;94510.19;;;13.49;73.72
12793;BME280;6460;42.684;23.260;2023-04-22T19:24:04;94516.25;;;13.36;75.25
12793;BME280;6460;42.684;23.260;2023-04-22T19:26:31;94514.09;;;13.11;76.96
12793;BME280;6460;42.684;23.260;2023-04-22T19:28:59;94522.13;;;12.67;78.81
12793;BME280;6460;42.684;23.260;2023-04-22T19:31:28;94527.97;;;12.69;80.24
12793;BME280;6460;42.684;23.260;2023-04-22T19:33:55;94526.09;;;12.77;80.34
12793;BME280;6460;42.684;23.260;2023-04-22T19:36:23;94520.00;;;12.47;82.26
12793;BME280;6460;42.684;23.260;2023-04-22T19:38:50;94525.50;;;12.57;81.71
12793;BME280;6460;42.684;23.260;2023-04-22T19:41:17;94520.72;;;12.10;83.34
12793;BME280;6460;42.684;23.260;2023-04-22T19:43:44;94514.19;;;12.11;83.71
12793;BME280;6460;42.684;23.260;2023-04-22T19:46:12;94523.41;;;12.10;83.53
12793;BME280;6460;42.684;23.260;2023-04-22T19:48:41;94510.75;;;12.14;83.62
12793;BME280;6460;42.684;23.260;2023-04-22T19:51:09;94517.56;;;12.38;82.25
12793;BME280;6460;42.684;23.260;2023-04-22T19:58:42;94522.06;;;12.27;81.21
12793;BME280;6460;42.684;23.260;2023-04-22T20:01:13;94520.53;;;12.59;79.44
12793;BME280;6460;42.684;23.260;2023-04-22T20:03:42;94519.88;;;12.36;80.27
12793;BME280;6460;42.684;23.260;2023-04-22T20:06:11;94522.69;;;12.47;80.17
12793;BME280;6460;42.684;23.260;2023-04-22T20:08:39;94529.66;;;12.51;79.35
12793;BME280;6460;42.684;23.260;2023-04-22T20:11:08;94527.00;;;12.55;78.77
12793;BME280;6460;42.684;23.260;2023-04-22T20:13:38;94521.34;;;12.63;77.69
12793;BME280;6460;42.684;23.260;2023-04-22T20:16:07;94517.56;;;12.71;77.01
12793;BME280;6460;42.684;23.260;2023-04-22T20:23:48;94527.78;;;12.22;78.01
12793;BME280;6460;42.684;23.260;2023-04-22T20:26:17;94521.56;;;12.51;77.17
12793;BME280;6460;42.684;23.260;2023-04-22T20:28:46;94516.03;;;11.78;80.12
12793;BME280;6460;42.684;23.260;2023-04-22T20:31:14;94520.09;;;11.94;80.46
12793;BME280;6460;42.684;23.260;2023-04-22T20:33:45;94513.66;;;11.73;81.13
12793;BME280;6460;42.684;23.260;2023-04-22T20:36:16;94518.47;;;11.86;80.34
12793;BME280;6460;42.684;23.260;2023-04-22T20:38:45;94524.72;;;11.94;80.45
12793;BME280;6460;42.684;23.260;2023-04-22T20:41:15;94521.09;;;12.09;79.97
12793;BME280;6460;42.684;23.260;2023-04-22T20:43:45;94518.28;;;12.02;79.24
12793;BME280;6460;42.684;23.260;2023-04-22T20:46:12;94519.50;;;11.78;81.11
12793;BME280;6460;42.684;23.260;2023-04-22T20:48:39;94528.06;;;12.13;79.34
12793;BME280;6460;42.684;23.260;2023-04-22T20:51:07;94520.22;;;12.31;78.96
12793;BME280;6460;42.684;23.260;2023-04-22T20:53:34;94526.13;;;12.44;78.07
12793;BME280;6460;42.684;23.260;2023-04-22T20:56:04;94520.78;;;12.47;78.12
12793;BME280;6460;42.684;23.260;2023-04-22T20:58:32;94525.44;;;12.50;77.88
12793;BME280;6460;42.684;23.260;2023-04-22T21:00:59;94527.06;;;12.58;77.12
12793;BME280;6460;42.684;23.260;2023-04-22T21:24:10;94534.75;;;12.56;76.69
12793;BME280;6460;42.684;23.260;2023-04-22T21:26:38;94528.34;;;12.38;77.07
12793;BME280;6460;42.684;23.260;2023-04-22T21:29:06;94532.22;;;12.37;77.33
12793;BME280;6460;42.684;23.260;2023-04-22T21:31:33;94527.88;;;12.29;77.72
12793;BME280;6460;42.684;23.260;2023-04-22T21:34:02;94527.25;;;12.43;77.29
12793;BME280;6460;42.684;23.260;2023-04-22T21:36:31;94525.34;;;12.43;76.65
12793;BME280;6460;42.684;23.260;2023-04-22T21:38:58;94530.69;;;12.40;77.14
12793;BME280;6460;42.684;23.260;2023-04-22T21:41:29;94536.91;;;12.14;78.28
12793;BME280;6460;42.684;23.260;2023-04-22T21:43:56;94529.78;;;12.29;78.17
12793;BME280;6460;42.684;23.260;2023-04-22T21:46:23;94535.28;;;12.06;78.70
12793;BME280;6460;42.684;23.260;2023-04-22T21:48:50;94529.06;;;12.02;79.37
12793;BME280;6460;42.684;23.260;2023-04-22T21:51:18;94534.41;;;11.98;79.52
12793;BME280;6460;42.684;23.260;2023-04-22T21:53:45;94537.78;;;11.92;80.00
12793;BME280;6460;42.684;23.260;2023-04-22T21:56:13;94540.16;;;11.97;79.51
12793;BME280;6460;42.684;23.260;2023-04-22T21:58:42;94541.06;;;12.08;79.50
12793;BME280;6460;42.684;23.260;2023-04-22T22:01:09;94545.00;;;12.14;78.65
12793;BME280;6460;42.684;23.260;2023-04-22T22:03:36;94537.31;;;11.86;79.33
12793;BME280;6460;42.684;23.260;2023-04-22T22:06:04;94542.53;;;12.02;79.56
12793;BME280;6460;42.684;23.260;2023-04-22T22:08:31;94536.72;;;11.47;82.13
12793;BME280;6460;42.684;23.260;2023-04-22T22:10:59;94541.84;;;11.56;82.43